Pagina principale
METAR-TAF:

METAR-TAF

Aeroporti :

Aeroporto di Tunisi-Cartagine

Tunisi, Tunisia

latitudine: 36-50N, longitudine: 010-14E, altezza: 3 m

Osservazione

Il bollettino è stato emesso 16 minuti fa, alle 18:00 UTC
Vento 4 kt da nord/nord-ovest
Temperature 14°C
Umidità 55%
Pressione 1013 hPa
Visibilità 10 km o più
Poco nuvoloso ad un'altezza di 3300 ft

METAR: DTTA 211800Z 33004KT 9999 FEW033 14/05 Q1013

Ora: 19:16 (18:16 UTC)

Previsione

Il bollettino è stato emesso 1 ora e 16 minuti fa, alle 17:00 UTC
Previsione valida dal 21 alle 18 UTC al 22 alle 18 UTC
Vento 3 kt da nord/nord-ovest
Visibilità 10 km o più
Poco nuvoloso ad un'altezza di 3300 ft
Evoluzione graduale
dal 21 alle 19 UTC al 21 alle 21 UTC
Vento 4 kt da sud/sud-ovest
Evoluzione graduale
dal 22 alle 10 UTC al 22 alle 12 UTC
Vento 11 kt da sud

TAF: DTTA 211700Z 2118/2218 33003KT 9999 FEW033 BECMG 2119/2121 20004KT BECMG 2210/2212 18011KT

Osservazioni e previsioni meteorologiche di più di 4000 aeroporti (messaggi METAR e TAF).

Le stazioni disponibili sono rappresentate dai dischi gialli e rossi sulla carta.

Puntare il mouse per vedere il nome della stazione.

Clicca sopra per visualizzare le osservazioni e previsioni meteorologiche.

Per cambiare la mappa : fare clic sui pulsanti verdi con una croce nera per ingrandire, il pulsante verde con un trattino per diminuire, o sulla freccia verde per le mappe adiacenti.


METAR-TAF: